sensor_id;sensor_type;location;lat;lon;timestamp;pressure;altitude;pressure_sealevel;temperature;humidity
15794;BME280;7999;51.208;4.244;2022-12-18T00:02:10;102699.75;;;-5.63;100.00
15794;BME280;7999;51.208;4.244;2022-12-18T00:04:37;102698.16;;;-5.71;100.00
15794;BME280;7999;51.208;4.244;2022-12-18T00:07:04;102693.38;;;-5.68;100.00
15794;BME280;7999;51.208;4.244;2022-12-18T00:09:30;102686.81;;;-5.66;100.00
15794;BME280;7999;51.208;4.244;2022-12-18T00:11:57;102686.84;;;-5.74;100.00
15794;BME280;7999;51.208;4.244;2022-12-18T00:14:25;102682.97;;;-5.79;100.00
15794;BME280;7999;51.208;4.244;2022-12-18T00:16:53;102676.25;;;-5.79;100.00
15794;BME280;7999;51.208;4.244;2022-12-18T00:19:20;102678.06;;;-5.86;100.00
15794;BME280;7999;51.208;4.244;2022-12-18T00:21:47;102672.53;;;-5.82;100.00
15794;BME280;7999;51.208;4.244;2022-12-18T00:24:13;102663.91;;;-5.84;100.00
15794;BME280;7999;51.208;4.244;2022-12-18T00:26:40;102663.97;;;-5.93;100.00
15794;BME280;7999;51.208;4.244;2022-12-18T00:29:10;102663.91;;;-5.84;100.00
15794;BME280;7999;51.208;4.244;2022-12-18T00:31:38;102666.91;;;-5.88;100.00
15794;BME280;7999;51.208;4.244;2022-12-18T00:34:08;102656.69;;;-5.99;100.00
15794;BME280;7999;51.208;4.244;2022-12-18T00:36:38;102653.56;;;-6.05;100.00
15794;BME280;7999;51.208;4.244;2022-12-18T00:39:05;102657.13;;;-6.03;100.00
15794;BME280;7999;51.208;4.244;2022-12-18T00:41:32;102654.78;;;-6.10;100.00
15794;BME280;7999;51.208;4.244;2022-12-18T00:44:17;102655.06;;;-6.07;100.00
15794;BME280;7999;51.208;4.244;2022-12-18T00:46:44;102655.66;;;-6.09;100.00
15794;BME280;7999;51.208;4.244;2022-12-18T00:49:13;102653.13;;;-6.01;100.00
15794;BME280;7999;51.208;4.244;2022-12-18T00:51:40;102649.09;;;-5.99;100.00
15794;BME280;7999;51.208;4.244;2022-12-18T00:54:07;102648.56;;;-5.86;100.00
15794;BME280;7999;51.208;4.244;2022-12-18T00:56:34;102661.75;;;-5.99;100.00
15794;BME280;7999;51.208;4.244;2022-12-18T00:59:01;102663.13;;;-6.02;100.00
15794;BME280;7999;51.208;4.244;2022-12-18T01:01:28;102665.34;;;-5.97;100.00
15794;BME280;7999;51.208;4.244;2022-12-18T01:03:56;102665.63;;;-6.11;100.00
15794;BME280;7999;51.208;4.244;2022-12-18T01:06:25;102657.31;;;-6.10;100.00
15794;BME280;7999;51.208;4.244;2022-12-18T01:08:52;102668.75;;;-6.05;100.00
15794;BME280;7999;51.208;4.244;2022-12-18T01:11:19;102671.88;;;-5.99;100.00
15794;BME280;7999;51.208;4.244;2022-12-18T01:13:47;102676.94;;;-5.99;100.00
15794;BME280;7999;51.208;4.244;2022-12-18T01:16:14;102680.59;;;-5.86;100.00
15794;BME280;7999;51.208;4.244;2022-12-18T01:18:41;102671.72;;;-5.92;100.00
15794;BME280;7999;51.208;4.244;2022-12-18T01:21:08;102670.84;;;-6.01;100.00
15794;BME280;7999;51.208;4.244;2022-12-18T01:23:37;102664.00;;;-6.02;100.00
15794;BME280;7999;51.208;4.244;2022-12-18T01:26:05;102665.47;;;-6.04;100.00
15794;BME280;7999;51.208;4.244;2022-12-18T01:28:34;102659.09;;;-6.00;100.00
15794;BME280;7999;51.208;4.244;2022-12-18T01:31:14;102654.03;;;-6.09;100.00
15794;BME280;7999;51.208;4.244;2022-12-18T01:33:41;102642.84;;;-6.11;100.00
15794;BME280;7999;51.208;4.244;2022-12-18T01:36:13;102652.97;;;-6.11;100.00
15794;BME280;7999;51.208;4.244;2022-12-18T01:38:42;102647.59;;;-6.05;100.00
15794;BME280;7999;51.208;4.244;2022-12-18T01:41:09;102652.66;;;-5.97;100.00
15794;BME280;7999;51.208;4.244;2022-12-18T01:43:47;102646.13;;;-6.12;100.00
15794;BME280;7999;51.208;4.244;2022-12-18T01:46:14;102653.28;;;-6.08;100.00
15794;BME280;7999;51.208;4.244;2022-12-18T01:48:41;102657.44;;;-6.00;100.00
15794;BME280;7999;51.208;4.244;2022-12-18T01:51:10;102664.16;;;-6.09;100.00
15794;BME280;7999;51.208;4.244;2022-12-18T01:53:37;102666.69;;;-6.09;100.00
15794;BME280;7999;51.208;4.244;2022-12-18T01:56:06;102666.69;;;-6.17;100.00
15794;BME280;7999;51.208;4.244;2022-12-18T01:58:36;102671.75;;;-6.17;100.00
15794;BME280;7999;51.208;4.244;2022-12-18T02:01:06;102672.94;;;-6.14;100.00
15794;BME280;7999;51.208;4.244;2022-12-18T02:03:33;102679.47;;;-6.07;100.00
15794;BME280;7999;51.208;4.244;2022-12-18T02:06:00;102678.00;;;-6.14;100.00
15794;BME280;7999;51.208;4.244;2022-12-18T02:08:33;102669.53;;;-6.14;100.00
15794;BME280;7999;51.208;4.244;2022-12-18T02:11:04;102671.50;;;-6.29;100.00
15794;BME280;7999;51.208;4.244;2022-12-18T02:13:38;102671.47;;;-6.20;100.00
15794;BME280;7999;51.208;4.244;2022-12-18T02:16:12;102661.94;;;-6.14;100.00
15794;BME280;7999;51.208;4.244;2022-12-18T02:18:43;102652.56;;;-6.15;100.00
15794;BME280;7999;51.208;4.244;2022-12-18T02:21:12;102639.56;;;-6.10;100.00
15794;BME280;7999;51.208;4.244;2022-12-18T02:23:47;102638.13;;;-6.25;100.00
15794;BME280;7999;51.208;4.244;2022-12-18T02:26:19;102627.38;;;-6.14;100.00
15794;BME280;7999;51.208;4.244;2022-12-18T02:28:51;102622.34;;;-6.22;100.00
15794;BME280;7999;51.208;4.244;2022-12-18T02:31:20;102625.03;;;-6.21;100.00
15794;BME280;7999;51.208;4.244;2022-12-18T02:33:48;102628.88;;;-6.16;100.00
15794;BME280;7999;51.208;4.244;2022-12-18T02:36:15;102623.25;;;-6.22;100.00
15794;BME280;7999;51.208;4.244;2022-12-18T02:38:43;102629.06;;;-6.23;100.00
15794;BME280;7999;51.208;4.244;2022-12-18T02:41:13;102621.44;;;-6.14;100.00
15794;BME280;7999;51.208;4.244;2022-12-18T02:43:46;102629.63;;;-6.17;100.00
15794;BME280;7999;51.208;4.244;2022-12-18T02:46:25;102628.88;;;-6.16;100.00
15794;BME280;7999;51.208;4.244;2022-12-18T02:48:53;102630.53;;;-6.25;100.00
15794;BME280;7999;51.208;4.244;2022-12-18T02:51:24;102628.31;;;-6.22;100.00
15794;BME280;7999;51.208;4.244;2022-12-18T02:53:58;102621.31;;;-6.33;100.00
15794;BME280;7999;51.208;4.244;2022-12-18T02:56:28;102619.66;;;-6.33;100.00
15794;BME280;7999;51.208;4.244;2022-12-18T02:58:59;102610.75;;;-6.29;100.00
15794;BME280;7999;51.208;4.244;2022-12-18T03:01:38;102607.91;;;-6.32;100.00
15794;BME280;7999;51.208;4.244;2022-12-18T03:04:09;102606.13;;;-6.33;100.00
15794;BME280;7999;51.208;4.244;2022-12-18T03:06:39;102597.63;;;-6.34;100.00
15794;BME280;7999;51.208;4.244;2022-12-18T03:09:08;102593.75;;;-6.30;100.00
15794;BME280;7999;51.208;4.244;2022-12-18T03:11:37;102583.81;;;-6.29;100.00
15794;BME280;7999;51.208;4.244;2022-12-18T03:14:25;102591.84;;;-6.24;100.00
15794;BME280;7999;51.208;4.244;2022-12-18T03:16:54;102591.09;;;-6.23;100.00
15794;BME280;7999;51.208;4.244;2022-12-18T03:19:24;102595.25;;;-6.32;100.00
15794;BME280;7999;51.208;4.244;2022-12-18T03:21:57;102592.72;;;-6.32;100.00
15794;BME280;7999;51.208;4.244;2022-12-18T03:24:25;102600.16;;;-6.16;100.00
15794;BME280;7999;51.208;4.244;2022-12-18T03:26:53;102603.47;;;-6.26;100.00
15794;BME280;7999;51.208;4.244;2022-12-18T03:29:25;102606.00;;;-6.26;100.00
15794;BME280;7999;51.208;4.244;2022-12-18T03:31:54;102612.69;;;-6.27;100.00
15794;BME280;7999;51.208;4.244;2022-12-18T03:34:23;102617.72;;;-6.18;100.00
15794;BME280;7999;51.208;4.244;2022-12-18T03:36:52;102622.31;;;-6.14;100.00
15794;BME280;7999;51.208;4.244;2022-12-18T03:39:21;102621.84;;;-6.10;100.00
15794;BME280;7999;51.208;4.244;2022-12-18T03:41:55;102617.91;;;-6.25;100.00
15794;BME280;7999;51.208;4.244;2022-12-18T03:44:35;102609.25;;;-6.27;100.00
15794;BME280;7999;51.208;4.244;2022-12-18T03:47:07;102614.00;;;-6.30;100.00
15794;BME280;7999;51.208;4.244;2022-12-18T03:49:35;102612.22;;;-6.31;100.00
15794;BME280;7999;51.208;4.244;2022-12-18T03:52:05;102606.59;;;-6.37;100.00
15794;BME280;7999;51.208;4.244;2022-12-18T03:54:33;102601.81;;;-6.34;100.00
15794;BME280;7999;51.208;4.244;2022-12-18T03:57:09;102600.78;;;-6.36;100.00
15794;BME280;7999;51.208;4.244;2022-12-18T03:59:39;102598.84;;;-6.39;100.00
15794;BME280;7999;51.208;4.244;2022-12-18T04:02:08;102585.47;;;-6.46;100.00
15794;BME280;7999;51.208;4.244;2022-12-18T04:04:35;102588.59;;;-6.40;100.00
15794;BME280;7999;51.208;4.244;2022-12-18T04:07:06;102594.38;;;-6.41;100.00
15794;BME280;7999;51.208;4.244;2022-12-18T04:09:36;102593.94;;;-6.29;100.00
15794;BME280;7999;51.208;4.244;2022-12-18T04:12:05;102583.38;;;-6.42;100.00
15794;BME280;7999;51.208;4.244;2022-12-18T04:14:32;102592.28;;;-6.28;100.00
15794;BME280;7999;51.208;4.244;2022-12-18T04:17:04;102586.16;;;-6.30;100.00
15794;BME280;7999;51.208;4.244;2022-12-18T04:19:32;102590.50;;;-6.38;100.00
15794;BME280;7999;51.208;4.244;2022-12-18T04:22:00;102586.34;;;-6.37;100.00
15794;BME280;7999;51.208;4.244;2022-12-18T04:24:32;102589.63;;;-6.38;100.00
15794;BME280;7999;51.208;4.244;2022-12-18T04:27:09;102579.50;;;-6.38;100.00
15794;BME280;7999;51.208;4.244;2022-12-18T04:29:41;102582.31;;;-6.35;100.00
15794;BME280;7999;51.208;4.244;2022-12-18T04:32:10;102590.53;;;-6.46;100.00
15794;BME280;7999;51.208;4.244;2022-12-18T04:34:38;102598.72;;;-6.58;100.00
15794;BME280;7999;51.208;4.244;2022-12-18T04:37:04;102588.47;;;-6.50;100.00
15794;BME280;7999;51.208;4.244;2022-12-18T04:39:31;102598.13;;;-6.64;100.00
15794;BME280;7999;51.208;4.244;2022-12-18T04:42:04;102595.63;;;-6.55;100.00
15794;BME280;7999;51.208;4.244;2022-12-18T04:44:31;102594.72;;;-6.56;100.00
15794;BME280;7999;51.208;4.244;2022-12-18T04:46:57;102607.22;;;-6.66;100.00
15794;BME280;7999;51.208;4.244;2022-12-18T04:49:25;102602.47;;;-6.80;100.00
15794;BME280;7999;51.208;4.244;2022-12-18T04:51:52;102606.59;;;-6.89;100.00
15794;BME280;7999;51.208;4.244;2022-12-18T04:54:19;102601.84;;;-6.95;100.00
15794;BME280;7999;51.208;4.244;2022-12-18T04:56:46;102600.97;;;-6.87;100.00
15794;BME280;7999;51.208;4.244;2022-12-18T04:59:12;102598.91;;;-6.82;100.00
15794;BME280;7999;51.208;4.244;2022-12-18T05:01:42;102591.44;;;-6.98;100.00
15794;BME280;7999;51.208;4.244;2022-12-18T05:04:09;102583.13;;;-6.97;100.00
15794;BME280;7999;51.208;4.244;2022-12-18T05:06:37;102597.09;;;-6.92;100.00
15794;BME280;7999;51.208;4.244;2022-12-18T05:09:03;102592.50;;;-7.04;100.00
15794;BME280;7999;51.208;4.244;2022-12-18T05:11:30;102592.34;;;-6.97;100.00
15794;BME280;7999;51.208;4.244;2022-12-18T05:13:56;102591.16;;;-7.01;100.00
15794;BME280;7999;51.208;4.244;2022-12-18T05:16:23;102575.25;;;-7.08;100.00
15794;BME280;7999;51.208;4.244;2022-12-18T05:18:50;102567.97;;;-7.05;100.00
15794;BME280;7999;51.208;4.244;2022-12-18T05:21:16;102555.03;;;-7.08;100.00
15794;BME280;7999;51.208;4.244;2022-12-18T05:23:44;102561.41;;;-7.21;100.00
15794;BME280;7999;51.208;4.244;2022-12-18T05:26:14;102554.56;;;-7.22;100.00
15794;BME280;7999;51.208;4.244;2022-12-18T05:28:41;102565.25;;;-7.16;100.00
15794;BME280;7999;51.208;4.244;2022-12-18T05:31:07;102564.69;;;-7.04;100.00
15794;BME280;7999;51.208;4.244;2022-12-18T05:33:34;102546.25;;;-6.95;100.00
15794;BME280;7999;51.208;4.244;2022-12-18T05:36:01;102546.81;;;-6.89;100.00
15794;BME280;7999;51.208;4.244;2022-12-18T05:38:29;102550.69;;;-6.92;100.00
15794;BME280;7999;51.208;4.244;2022-12-18T05:40:57;102556.03;;;-6.89;100.00
15794;BME280;7999;51.208;4.244;2022-12-18T05:43:25;102551.47;;;-6.84;100.00
15794;BME280;7999;51.208;4.244;2022-12-18T05:45:52;102554.88;;;-6.84;100.00
15794;BME280;7999;51.208;4.244;2022-12-18T05:48:19;102556.34;;;-6.86;100.00
15794;BME280;7999;51.208;4.244;2022-12-18T05:50:47;102557.84;;;-6.97;100.00
15794;BME280;7999;51.208;4.244;2022-12-18T05:53:15;102559.63;;;-6.87;100.00
15794;BME280;7999;51.208;4.244;2022-12-18T05:55:42;102568.25;;;-6.85;100.00
15794;BME280;7999;51.208;4.244;2022-12-18T05:58:11;102575.41;;;-6.81;100.00
15794;BME280;7999;51.208;4.244;2022-12-18T06:00:39;102575.09;;;-6.75;100.00
15794;BME280;7999;51.208;4.244;2022-12-18T06:03:07;102579.56;;;-6.73;100.00
15794;BME280;7999;51.208;4.244;2022-12-18T06:05:34;102577.03;;;-6.90;100.00
15794;BME280;7999;51.208;4.244;2022-12-18T06:08:01;102572.13;;;-6.80;100.00
15794;BME280;7999;51.208;4.244;2022-12-18T06:10:28;102573.88;;;-6.88;100.00
15794;BME280;7999;51.208;4.244;2022-12-18T06:12:55;102583.28;;;-6.95;100.00
15794;BME280;7999;51.208;4.244;2022-12-18T06:15:23;102573.91;;;-6.96;100.00
15794;BME280;7999;51.208;4.244;2022-12-18T06:17:49;102572.41;;;-6.94;100.00
15794;BME280;7999;51.208;4.244;2022-12-18T06:20:16;102570.59;;;-7.12;100.00
15794;BME280;7999;51.208;4.244;2022-12-18T06:22:43;102569.00;;;-7.03;100.00
15794;BME280;7999;51.208;4.244;2022-12-18T06:25:09;102559.47;;;-6.97;100.00
15794;BME280;7999;51.208;4.244;2022-12-18T06:27:36;102556.81;;;-7.07;100.00
15794;BME280;7999;51.208;4.244;2022-12-18T06:30:06;102563.19;;;-7.02;100.00
15794;BME280;7999;51.208;4.244;2022-12-18T06:32:34;102556.94;;;-6.97;100.00
15794;BME280;7999;51.208;4.244;2022-12-18T06:35:01;102556.78;;;-6.90;100.00
15794;BME280;7999;51.208;4.244;2022-12-18T06:37:29;102559.19;;;-6.83;100.00
15794;BME280;7999;51.208;4.244;2022-12-18T06:39:57;102558.28;;;-6.92;100.00
15794;BME280;7999;51.208;4.244;2022-12-18T06:42:30;102559.03;;;-6.93;100.00
15794;BME280;7999;51.208;4.244;2022-12-18T06:45:01;102553.69;;;-6.96;100.00
15794;BME280;7999;51.208;4.244;2022-12-18T06:47:27;102549.22;;;-6.99;100.00
15794;BME280;7999;51.208;4.244;2022-12-18T06:49:58;102543.28;;;-6.82;100.00
15794;BME280;7999;51.208;4.244;2022-12-18T06:52:24;102544.78;;;-6.84;100.00
15794;BME280;7999;51.208;4.244;2022-12-18T06:54:51;102522.28;;;-6.90;100.00
15794;BME280;7999;51.208;4.244;2022-12-18T06:57:18;102522.44;;;-6.88;100.00
15794;BME280;7999;51.208;4.244;2022-12-18T06:59:45;102505.06;;;-6.94;100.00
15794;BME280;7999;51.208;4.244;2022-12-18T07:02:11;102501.91;;;-6.91;100.00
15794;BME280;7999;51.208;4.244;2022-12-18T07:04:39;102496.13;;;-6.90;100.00
15794;BME280;7999;51.208;4.244;2022-12-18T07:07:08;102492.38;;;-6.85;100.00
15794;BME280;7999;51.208;4.244;2022-12-18T07:09:37;102489.25;;;-6.74;100.00
15794;BME280;7999;51.208;4.244;2022-12-18T07:12:04;102487.63;;;-6.73;100.00
15794;BME280;7999;51.208;4.244;2022-12-18T07:14:32;102500.72;;;-6.86;100.00
15794;BME280;7999;51.208;4.244;2022-12-18T07:16:58;102486.44;;;-6.77;100.00
15794;BME280;7999;51.208;4.244;2022-12-18T07:19:25;102480.19;;;-6.72;100.00
15794;BME280;7999;51.208;4.244;2022-12-18T07:21:51;102478.41;;;-6.73;100.00
15794;BME280;7999;51.208;4.244;2022-12-18T07:24:19;102489.09;;;-6.67;100.00
15794;BME280;7999;51.208;4.244;2022-12-18T07:26:47;102488.91;;;-6.60;100.00
15794;BME280;7999;51.208;4.244;2022-12-18T07:29:13;102491.91;;;-6.64;100.00
15794;BME280;7999;51.208;4.244;2022-12-18T07:31:40;102485.53;;;-6.69;100.00
15794;BME280;7999;51.208;4.244;2022-12-18T07:34:09;102474.47;;;-6.61;100.00
15794;BME280;7999;51.208;4.244;2022-12-18T07:36:36;102477.94;;;-6.69;100.00
15794;BME280;7999;51.208;4.244;2022-12-18T07:39:02;102470.03;;;-6.55;100.00
15794;BME280;7999;51.208;4.244;2022-12-18T07:41:30;102464.53;;;-6.68;100.00
15794;BME280;7999;51.208;4.244;2022-12-18T07:44:08;102459.31;;;-6.61;100.00
15794;BME280;7999;51.208;4.244;2022-12-18T07:46:35;102458.00;;;-6.66;100.00
15794;BME280;7999;51.208;4.244;2022-12-18T07:49:02;102457.25;;;-6.65;100.00
15794;BME280;7999;51.208;4.244;2022-12-18T07:51:28;102448.00;;;-6.56;100.00
15794;BME280;7999;51.208;4.244;2022-12-18T07:53:56;102450.69;;;-6.54;100.00
15794;BME280;7999;51.208;4.244;2022-12-18T07:56:22;102447.53;;;-6.51;100.00
15794;BME280;7999;51.208;4.244;2022-12-18T07:58:50;102448.97;;;-6.36;100.00
15794;BME280;7999;51.208;4.244;2022-12-18T08:01:17;102446.47;;;-6.45;100.00
15794;BME280;7999;51.208;4.244;2022-12-18T08:03:46;102458.03;;;-6.38;100.00
15794;BME280;7999;51.208;4.244;2022-12-18T08:06:13;102448.41;;;-6.42;100.00
15794;BME280;7999;51.208;4.244;2022-12-18T08:08:39;102440.53;;;-6.45;100.00
15794;BME280;7999;51.208;4.244;2022-12-18T08:11:07;102420.00;;;-6.48;100.00
15794;BME280;7999;51.208;4.244;2022-12-18T08:13:33;102412.31;;;-6.31;100.00
15794;BME280;7999;51.208;4.244;2022-12-18T08:16:03;102422.84;;;-6.18;100.00
15794;BME280;7999;51.208;4.244;2022-12-18T08:18:31;102432.75;;;-6.11;100.00
15794;BME280;7999;51.208;4.244;2022-12-18T08:21:06;102432.91;;;-6.09;100.00
15794;BME280;7999;51.208;4.244;2022-12-18T08:23:33;102438.22;;;-5.98;100.00
15794;BME280;7999;51.208;4.244;2022-12-18T08:26:00;102428.22;;;-5.96;100.00
15794;BME280;7999;51.208;4.244;2022-12-18T08:28:26;102416.09;;;-5.90;100.00
15794;BME280;7999;51.208;4.244;2022-12-18T08:30:54;102411.94;;;-5.89;100.00
15794;BME280;7999;51.208;4.244;2022-12-18T08:33:21;102410.91;;;-5.73;100.00
15794;BME280;7999;51.208;4.244;2022-12-18T08:35:48;102431.91;;;-5.55;100.00
15794;BME280;7999;51.208;4.244;2022-12-18T08:38:18;102442.31;;;-5.52;100.00
15794;BME280;7999;51.208;4.244;2022-12-18T08:40:44;102446.88;;;-5.48;100.00
15794;BME280;7999;51.208;4.244;2022-12-18T08:43:11;102438.88;;;-5.34;100.00
15794;BME280;7999;51.208;4.244;2022-12-18T08:45:55;102439.16;;;-5.31;100.00
15794;BME280;7999;51.208;4.244;2022-12-18T08:48:24;102435.88;;;-5.30;100.00
15794;BME280;7999;51.208;4.244;2022-12-18T08:50:54;102430.03;;;-5.29;100.00
15794;BME280;7999;51.208;4.244;2022-12-18T08:53:20;102430.88;;;-5.19;100.00
15794;BME280;7999;51.208;4.244;2022-12-18T08:55:50;102427.50;;;-5.29;100.00
15794;BME280;7999;51.208;4.244;2022-12-18T08:58:16;102430.91;;;-5.09;100.00
15794;BME280;7999;51.208;4.244;2022-12-18T09:00:43;102422.91;;;-5.14;100.00
15794;BME280;7999;51.208;4.244;2022-12-18T09:03:10;102419.53;;;-5.04;100.00
15794;BME280;7999;51.208;4.244;2022-12-18T09:05:39;102419.25;;;-5.07;100.00
15794;BME280;7999;51.208;4.244;2022-12-18T09:08:06;102414.44;;;-5.04;100.00
15794;BME280;7999;51.208;4.244;2022-12-18T09:10:33;102406.59;;;-4.97;100.00
15794;BME280;7999;51.208;4.244;2022-12-18T09:13:00;102406.16;;;-4.83;100.00
15794;BME280;7999;51.208;4.244;2022-12-18T09:15:26;102410.91;;;-4.67;100.00
15794;BME280;7999;51.208;4.244;2022-12-18T09:17:54;102411.31;;;-4.62;100.00
15794;BME280;7999;51.208;4.244;2022-12-18T09:20:20;102415.66;;;-4.41;100.00
15794;BME280;7999;51.208;4.244;2022-12-18T09:22:48;102409.31;;;-4.46;100.00
15794;BME280;7999;51.208;4.244;2022-12-18T09:25:15;102402.44;;;-4.47;100.00
15794;BME280;7999;51.208;4.244;2022-12-18T09:27:41;102401.47;;;-4.29;100.00
15794;BME280;7999;51.208;4.244;2022-12-18T09:30:08;102410.38;;;-4.24;100.00
15794;BME280;7999;51.208;4.244;2022-12-18T09:32:35;102425.47;;;-4.36;100.00
15794;BME280;7999;51.208;4.244;2022-12-18T09:35:03;102422.03;;;-4.26;100.00
15794;BME280;7999;51.208;4.244;2022-12-18T09:37:30;102422.81;;;-4.27;100.00
15794;BME280;7999;51.208;4.244;2022-12-18T09:39:58;102419.75;;;-4.23;100.00
15794;BME280;7999;51.208;4.244;2022-12-18T09:42:25;102411.38;;;-4.32;100.00
15794;BME280;7999;51.208;4.244;2022-12-18T09:44:53;102400.47;;;-4.31;100.00
15794;BME280;7999;51.208;4.244;2022-12-18T09:47:21;102395.38;;;-4.21;100.00
15794;BME280;7999;51.208;4.244;2022-12-18T09:49:50;102389.66;;;-4.18;100.00
15794;BME280;7999;51.208;4.244;2022-12-18T09:52:21;102385.84;;;-4.13;100.00
15794;BME280;7999;51.208;4.244;2022-12-18T09:54:51;102390.56;;;-3.97;100.00
15794;BME280;7999;51.208;4.244;2022-12-18T09:57:22;102387.38;;;-4.15;100.00
15794;BME280;7999;51.208;4.244;2022-12-18T09:59:51;102392.84;;;-4.21;100.00
15794;BME280;7999;51.208;4.244;2022-12-18T10:02:20;102378.09;;;-4.15;100.00
15794;BME280;7999;51.208;4.244;2022-12-18T10:04:49;102375.59;;;-4.05;100.00
15794;BME280;7999;51.208;4.244;2022-12-18T10:07:21;102374.56;;;-3.96;100.00
15794;BME280;7999;51.208;4.244;2022-12-18T10:09:53;102367.94;;;-3.84;100.00
15794;BME280;7999;51.208;4.244;2022-12-18T10:12:28;102360.69;;;-3.69;100.00
15794;BME280;7999;51.208;4.244;2022-12-18T10:15:00;102360.34;;;-3.94;100.00
15794;BME280;7999;51.208;4.244;2022-12-18T10:17:32;102355.88;;;-3.87;100.00
15794;BME280;7999;51.208;4.244;2022-12-18T10:20:05;102352.31;;;-3.89;100.00
15794;BME280;7999;51.208;4.244;2022-12-18T10:22:43;102341.16;;;-3.81;100.00
15794;BME280;7999;51.208;4.244;2022-12-18T10:25:15;102338.97;;;-3.76;100.00
15794;BME280;7999;51.208;4.244;2022-12-18T10:27:46;102329.78;;;-3.54;100.00
15794;BME280;7999;51.208;4.244;2022-12-18T10:30:14;102339.56;;;-3.58;100.00
15794;BME280;7999;51.208;4.244;2022-12-18T10:32:41;102330.50;;;-3.45;100.00
15794;BME280;7999;51.208;4.244;2022-12-18T10:35:09;102325.72;;;-3.52;100.00
15794;BME280;7999;51.208;4.244;2022-12-18T10:40:23;102319.56;;;-3.44;100.00
15794;BME280;7999;51.208;4.244;2022-12-18T10:42:59;102315.13;;;-3.46;100.00
15794;BME280;7999;51.208;4.244;2022-12-18T10:45:29;102316.22;;;-3.32;100.00
15794;BME280;7999;51.208;4.244;2022-12-18T10:47:56;102309.19;;;-3.25;100.00
15794;BME280;7999;51.208;4.244;2022-12-18T10:50:24;102311.34;;;-3.19;100.00
15794;BME280;7999;51.208;4.244;2022-12-18T10:52:54;102304.53;;;-3.08;100.00
15794;BME280;7999;51.208;4.244;2022-12-18T10:55:23;102312.03;;;-3.10;100.00
15794;BME280;7999;51.208;4.244;2022-12-18T10:57:51;102323.19;;;-2.98;100.00
15794;BME280;7999;51.208;4.244;2022-12-18T11:00:27;102326.22;;;-3.02;100.00
15794;BME280;7999;51.208;4.244;2022-12-18T11:02:54;102326.97;;;-2.93;100.00
15794;BME280;7999;51.208;4.244;2022-12-18T11:05:28;102321.78;;;-2.72;100.00
15794;BME280;7999;51.208;4.244;2022-12-18T11:07:56;102317.59;;;-3.04;100.00
15794;BME280;7999;51.208;4.244;2022-12-18T11:10:24;102317.34;;;-2.97;100.00
15794;BME280;7999;51.208;4.244;2022-12-18T11:12:52;102311.72;;;-2.93;100.00
15794;BME280;7999;51.208;4.244;2022-12-18T11:15:19;102316.81;;;-3.03;100.00
15794;BME280;7999;51.208;4.244;2022-12-18T11:17:49;102321.69;;;-2.84;100.00
15794;BME280;7999;51.208;4.244;2022-12-18T11:20:20;102332.53;;;-2.87;100.00
15794;BME280;7999;51.208;4.244;2022-12-18T11:22:54;102326.66;;;-2.86;100.00
15794;BME280;7999;51.208;4.244;2022-12-18T11:25:22;102311.94;;;-2.90;100.00
15794;BME280;7999;51.208;4.244;2022-12-18T11:27:49;102306.13;;;-2.77;100.00
15794;BME280;7999;51.208;4.244;2022-12-18T11:30:21;102300.91;;;-2.78;100.00
15794;BME280;7999;51.208;4.244;2022-12-18T11:32:50;102299.38;;;-2.76;100.00
15794;BME280;7999;51.208;4.244;2022-12-18T11:35:20;102296.47;;;-2.81;100.00
15794;BME280;7999;51.208;4.244;2022-12-18T11:37:49;102289.44;;;-2.73;100.00
15794;BME280;7999;51.208;4.244;2022-12-18T11:40:19;102284.84;;;-2.56;100.00
15794;BME280;7999;51.208;4.244;2022-12-18T11:42:48;102286.13;;;-2.72;100.00
15794;BME280;7999;51.208;4.244;2022-12-18T11:45:24;102286.75;;;-2.75;100.00
15794;BME280;7999;51.208;4.244;2022-12-18T11:47:54;102281.66;;;-2.75;100.00
15794;BME280;7999;51.208;4.244;2022-12-18T11:50:24;102280.97;;;-2.84;100.00
15794;BME280;7999;51.208;4.244;2022-12-18T11:52:51;102278.31;;;-2.86;100.00
15794;BME280;7999;51.208;4.244;2022-12-18T11:55:20;102280.16;;;-2.95;100.00
15794;BME280;7999;51.208;4.244;2022-12-18T11:57:53;102270.00;;;-2.95;100.00
15794;BME280;7999;51.208;4.244;2022-12-18T12:00:22;102264.56;;;-2.99;100.00
15794;BME280;7999;51.208;4.244;2022-12-18T12:02:57;102258.59;;;-3.00;100.00
15794;BME280;7999;51.208;4.244;2022-12-18T12:05:32;102257.63;;;-2.90;100.00
15794;BME280;7999;51.208;4.244;2022-12-18T12:08:04;102259.97;;;-2.82;100.00
15794;BME280;7999;51.208;4.244;2022-12-18T12:10:36;102263.56;;;-2.68;100.00
15794;BME280;7999;51.208;4.244;2022-12-18T12:13:15;102258.50;;;-2.56;100.00
15794;BME280;7999;51.208;4.244;2022-12-18T12:15:46;102260.50;;;-2.52;100.00
15794;BME280;7999;51.208;4.244;2022-12-18T12:18:19;102250.88;;;-2.56;100.00
15794;BME280;7999;51.208;4.244;2022-12-18T12:20:52;102254.72;;;-2.61;100.00
15794;BME280;7999;51.208;4.244;2022-12-18T12:23:23;102255.41;;;-2.52;100.00
15794;BME280;7999;51.208;4.244;2022-12-18T12:25:55;102245.59;;;-2.36;100.00
15794;BME280;7999;51.208;4.244;2022-12-18T12:28:26;102242.38;;;-2.45;100.00
15794;BME280;7999;51.208;4.244;2022-12-18T12:31:01;102238.81;;;-2.47;100.00
15794;BME280;7999;51.208;4.244;2022-12-18T12:33:35;102238.19;;;-2.33;100.00
15794;BME280;7999;51.208;4.244;2022-12-18T12:36:05;102232.31;;;-2.32;100.00
15794;BME280;7999;51.208;4.244;2022-12-18T12:38:35;102235.31;;;-2.26;100.00
15794;BME280;7999;51.208;4.244;2022-12-18T12:41:04;102222.03;;;-2.10;100.00
15794;BME280;7999;51.208;4.244;2022-12-18T12:43:33;102214.38;;;-2.22;100.00
15794;BME280;7999;51.208;4.244;2022-12-18T12:46:02;102227.59;;;-2.15;100.00
15794;BME280;7999;51.208;4.244;2022-12-18T12:48:36;102219.69;;;-2.42;100.00
15794;BME280;7999;51.208;4.244;2022-12-18T12:51:07;102213.81;;;-2.29;100.00
15794;BME280;7999;51.208;4.244;2022-12-18T12:53:36;102210.16;;;-2.33;100.00
15794;BME280;7999;51.208;4.244;2022-12-18T12:56:04;102205.53;;;-2.27;100.00
15794;BME280;7999;51.208;4.244;2022-12-18T12:58:33;102208.50;;;-2.21;100.00
15794;BME280;7999;51.208;4.244;2022-12-18T13:01:04;102204.09;;;-2.11;100.00
15794;BME280;7999;51.208;4.244;2022-12-18T13:03:39;102202.41;;;-1.99;100.00